createdAt,value
2022-11-22T00:01:23.132Z,2.30
2022-11-22T00:03:51.462Z,2.45
2022-11-22T00:06:19.830Z,2.40
2022-11-22T00:08:48.398Z,2.17
2022-11-22T00:11:18.032Z,2.30
2022-11-22T00:13:46.468Z,3.08
2022-11-22T00:16:14.700Z,2.67
2022-11-22T00:18:43.202Z,3.05
2022-11-22T00:21:11.520Z,2.22
2022-11-22T00:23:39.848Z,2.08
2022-11-22T00:26:11.949Z,3.20
2022-11-22T00:28:42.001Z,3.10
2022-11-22T00:31:10.278Z,2.45
2022-11-22T00:33:38.593Z,2.55
2022-11-22T00:36:06.904Z,2.42
2022-11-22T00:38:35.371Z,2.40
2022-11-22T00:41:03.446Z,2.47
2022-11-22T00:43:31.842Z,2.87
2022-11-22T00:46:02.596Z,2.38
2022-11-22T00:48:31.197Z,2.67
2022-11-22T00:50:59.463Z,2.35
2022-11-22T00:53:27.751Z,2.78
2022-11-22T00:55:56.010Z,2.33
2022-11-22T00:58:24.481Z,2.47
2022-11-22T01:00:56.526Z,2.93
2022-11-22T01:03:27.057Z,2.15
2022-11-22T01:05:55.289Z,2.63
2022-11-22T01:08:23.570Z,2.77
2022-11-22T01:10:57.426Z,2.30
2022-11-22T01:13:26.038Z,2.97
2022-11-22T01:15:54.647Z,2.10
2022-11-22T01:18:23.008Z,3.00
2022-11-22T01:20:52.728Z,2.40
2022-11-22T01:23:21.082Z,2.50
2022-11-22T01:25:49.402Z,2.13
2022-11-22T01:28:17.837Z,2.00
2022-11-22T01:30:46.283Z,1.87
2022-11-22T01:33:14.613Z,2.30
2022-11-22T01:35:43.171Z,2.13
2022-11-22T01:38:12.960Z,1.97
2022-11-22T01:40:41.375Z,1.97
2022-11-22T01:43:17.317Z,2.37
2022-11-22T01:45:48.281Z,1.83
2022-11-22T01:48:39.528Z,2.17
2022-11-22T01:51:16.651Z,2.13
2022-11-22T01:53:46.897Z,2.08
2022-11-22T01:56:18.023Z,1.67
2022-11-22T01:58:50.062Z,2.60
2022-11-22T02:01:18.376Z,1.67
2022-11-22T02:03:50.449Z,1.90
2022-11-22T02:06:19.905Z,1.67
2022-11-22T02:08:57.788Z,2.33
2022-11-22T02:11:33.836Z,1.90
2022-11-22T02:14:03.554Z,2.20
2022-11-22T02:16:32.840Z,1.97
2022-11-22T02:19:01.150Z,1.30
2022-11-22T02:21:30.074Z,1.70
2022-11-22T02:24:05.853Z,1.97
2022-11-22T02:26:35.567Z,1.70
2022-11-22T02:29:07.678Z,1.43
2022-11-22T02:31:38.783Z,1.37
2022-11-22T02:34:07.247Z,1.50
2022-11-22T02:36:39.871Z,1.50
2022-11-22T02:39:10.538Z,1.67
2022-11-22T02:41:41.354Z,1.80
2022-11-22T02:44:11.785Z,1.27
2022-11-22T02:46:49.061Z,1.50
2022-11-22T02:49:19.353Z,1.80
2022-11-22T02:51:48.155Z,1.57
2022-11-22T02:54:16.775Z,1.07
2022-11-22T02:56:46.610Z,1.57
2022-11-22T02:59:14.930Z,1.17
2022-11-22T03:01:44.545Z,1.85
2022-11-22T03:04:24.470Z,1.48
2022-11-22T03:06:54.245Z,1.30
2022-11-22T03:09:22.524Z,1.40
2022-11-22T03:11:52.257Z,1.57
2022-11-22T03:14:20.753Z,1.50
2022-11-22T03:16:49.114Z,1.40
2022-11-22T03:19:17.732Z,2.25
2022-11-22T03:21:46.031Z,2.03
2022-11-22T03:24:14.739Z,1.73
2022-11-22T03:26:43.208Z,1.77
2022-11-22T03:29:12.941Z,1.63
2022-11-22T03:31:41.335Z,1.50
2022-11-22T03:34:10.109Z,1.67
2022-11-22T03:36:38.621Z,1.50
2022-11-22T03:39:06.921Z,1.93
2022-11-22T03:41:35.273Z,1.80
2022-11-22T03:44:03.751Z,1.83
2022-11-22T03:46:33.527Z,1.77
2022-11-22T03:49:01.799Z,1.60
2022-11-22T03:51:30.062Z,1.50
2022-11-22T03:53:59.158Z,1.58
2022-11-22T03:56:27.436Z,1.63
2022-11-22T03:58:55.856Z,2.00
2022-11-22T04:01:24.274Z,1.63
2022-11-22T04:03:54.164Z,2.00
2022-11-22T04:06:22.442Z,1.50
2022-11-22T04:08:51.179Z,1.20
2022-11-22T04:11:19.405Z,1.70
2022-11-22T04:14:05.434Z,1.60
2022-11-22T04:16:33.764Z,1.80
2022-11-22T04:19:03.522Z,1.90
2022-11-22T04:21:33.897Z,1.70
2022-11-22T04:24:20.396Z,1.73
2022-11-22T04:26:49.086Z,1.93
2022-11-22T04:29:18.029Z,1.67
2022-11-22T04:32:03.832Z,1.80
2022-11-22T04:34:33.728Z,1.60
2022-11-22T04:37:02.495Z,1.87
2022-11-22T04:39:31.053Z,1.63
2022-11-22T04:42:17.681Z,1.90
2022-11-22T04:44:46.438Z,1.95
2022-11-22T04:47:38.808Z,1.85
2022-11-22T04:50:24.140Z,1.30
2022-11-22T04:52:55.068Z,1.50
2022-11-22T04:55:23.513Z,1.67
2022-11-22T04:57:57.477Z,1.70
2022-11-22T05:00:29.473Z,2.00
2022-11-22T05:02:57.922Z,1.97
2022-11-22T05:05:28.136Z,1.67
2022-11-22T05:07:56.434Z,2.00
2022-11-22T05:10:27.080Z,1.37
2022-11-22T05:12:56.412Z,1.77
2022-11-22T05:15:24.822Z,2.80
2022-11-22T05:17:53.293Z,1.70
2022-11-22T05:20:21.681Z,1.73
2022-11-22T05:23:08.622Z,1.90
2022-11-22T05:25:37.212Z,1.60
2022-11-22T05:28:05.486Z,1.53
2022-11-22T05:30:33.946Z,2.40
2022-11-22T05:33:02.399Z,1.65
2022-11-22T05:35:30.863Z,3.03
2022-11-22T05:38:01.114Z,2.10
2022-11-22T05:40:29.432Z,2.00
2022-11-22T05:42:58.961Z,1.90
2022-11-22T05:45:27.397Z,2.75
2022-11-22T05:47:56.557Z,2.20
2022-11-22T05:50:25.046Z,2.35
2022-11-22T05:52:53.536Z,2.47
2022-11-22T05:55:23.142Z,2.50
2022-11-22T05:57:51.727Z,2.08
2022-11-22T06:00:20.341Z,1.67
2022-11-22T06:02:48.616Z,2.50
2022-11-22T06:05:17.031Z,1.70
2022-11-22T06:07:45.637Z,2.13
2022-11-22T06:10:13.801Z,2.20
2022-11-22T06:12:43.445Z,1.90
2022-11-22T06:15:12.281Z,2.07
2022-11-22T06:17:40.284Z,1.93
2022-11-22T06:20:09.882Z,2.38
2022-11-22T06:22:38.395Z,1.98
2022-11-22T06:25:08.247Z,2.28
2022-11-22T06:27:36.654Z,2.90
2022-11-22T06:30:07.432Z,2.00
2022-11-22T06:32:36.067Z,1.90
2022-11-22T06:35:04.993Z,2.20
2022-11-22T06:37:33.592Z,2.17
2022-11-22T06:40:01.969Z,2.07
2022-11-22T06:42:30.458Z,2.30
2022-11-22T06:44:59.105Z,2.20
2022-11-22T06:47:28.884Z,2.08
2022-11-22T06:49:57.106Z,1.98
2022-11-22T06:52:26.591Z,2.63
2022-11-22T06:54:55.130Z,1.85
2022-11-22T06:57:23.547Z,1.65
2022-11-22T06:59:52.121Z,1.55
2022-11-22T07:02:21.103Z,2.15
2022-11-22T07:05:17.171Z,1.83
2022-11-22T07:07:39.203Z,1.55
2022-11-22T07:10:08.146Z,1.75
2022-11-22T07:12:36.519Z,1.80
2022-11-22T07:15:05.096Z,1.77
2022-11-22T07:17:33.535Z,2.03
2022-11-22T07:20:03.076Z,1.73
2022-11-22T07:22:31.527Z,2.70
2022-11-22T07:24:59.920Z,1.98
2022-11-22T07:27:28.386Z,2.33
2022-11-22T07:29:56.601Z,1.60
2022-11-22T07:32:25.095Z,1.67
2022-11-22T07:34:53.773Z,1.88
2022-11-22T07:37:23.556Z,1.65
2022-11-22T07:39:51.892Z,2.20
2022-11-22T07:42:25.836Z,2.08
2022-11-22T07:44:55.294Z,3.22
2022-11-22T07:47:23.629Z,2.25
2022-11-22T07:49:52.206Z,1.70
2022-11-22T07:52:21.984Z,2.15
2022-11-22T07:54:50.304Z,2.17
2022-11-22T07:57:19.200Z,2.33
2022-11-22T07:59:48.448Z,2.13
2022-11-22T08:02:17.039Z,1.40
2022-11-22T08:04:45.403Z,2.00
2022-11-22T08:07:13.764Z,1.45
2022-11-22T08:09:43.612Z,1.98
2022-11-22T08:12:12.016Z,1.77
2022-11-22T08:14:40.472Z,2.35
2022-11-22T08:17:09.242Z,1.65
2022-11-22T08:19:37.569Z,1.80
2022-11-22T08:22:05.851Z,1.55
2022-11-22T08:24:34.940Z,1.65
2022-11-22T08:27:04.669Z,2.03
2022-11-22T08:29:33.133Z,1.75
2022-11-22T08:32:01.312Z,2.10
2022-11-22T08:34:29.747Z,1.48
2022-11-22T08:36:58.283Z,3.63
2022-11-22T08:39:26.735Z,2.40
2022-11-22T08:41:55.383Z,1.95
2022-11-22T08:44:25.037Z,2.05
2022-11-22T08:46:53.298Z,1.38
2022-11-22T08:49:21.673Z,1.25
2022-11-22T08:51:50.523Z,1.52
2022-11-22T08:54:19.039Z,1.30
2022-11-22T08:56:47.332Z,1.90
2022-11-22T08:59:15.810Z,2.05
2022-11-22T09:01:45.684Z,1.40
2022-11-22T09:04:14.202Z,1.95
2022-11-22T09:09:37.429Z,1.95
2022-11-22T09:12:07.158Z,1.60
2022-11-22T09:14:35.656Z,1.85
2022-11-22T09:17:06.881Z,1.40
2022-11-22T09:19:35.414Z,1.30
2022-11-22T09:22:03.860Z,1.27
2022-11-22T09:24:32.808Z,1.50
2022-11-22T09:27:01.318Z,1.23
2022-11-22T09:29:29.697Z,1.48
2022-11-22T09:31:58.352Z,1.52
2022-11-22T09:34:27.862Z,1.10
2022-11-22T09:36:56.384Z,1.30
2022-11-22T09:39:24.800Z,1.10
2022-11-22T09:42:24.380Z,1.35
2022-11-22T09:45:16.389Z,1.40
2022-11-22T09:47:56.918Z,1.50
2022-11-22T09:50:35.153Z,1.27
2022-11-22T09:53:09.213Z,1.05
2022-11-22T09:55:42.997Z,1.15
2022-11-22T09:58:19.701Z,1.20
2022-11-22T10:00:52.294Z,1.20
2022-11-22T10:03:27.065Z,1.30
2022-11-22T10:06:01.110Z,1.15
2022-11-22T10:08:39.983Z,1.00
2022-11-22T10:11:22.186Z,1.00
2022-11-22T10:13:57.365Z,1.00
2022-11-22T10:16:32.115Z,1.10
2022-11-22T10:19:06.688Z,0.93
2022-11-22T10:21:36.338Z,1.00
2022-11-22T10:24:05.307Z,1.33
2022-11-22T10:26:35.898Z,0.80
2022-11-22T10:29:19.748Z,1.30
2022-11-22T10:31:55.893Z,1.00
2022-11-22T10:34:36.318Z,1.00
2022-11-22T10:37:13.869Z,1.05
2022-11-22T10:39:56.660Z,1.23
2022-11-22T10:42:38.592Z,1.08
2022-11-22T10:45:15.196Z,1.10
2022-11-22T10:47:55.785Z,0.95
2022-11-22T10:50:30.693Z,0.90
2022-11-22T10:53:08.756Z,1.15
2022-11-22T10:55:47.529Z,0.85
2022-11-22T10:58:22.801Z,1.00
2022-11-22T11:00:58.801Z,0.95
2022-11-22T11:03:31.289Z,1.00
2022-11-22T11:06:33.415Z,1.13
2022-11-22T11:09:55.121Z,0.80
2022-11-22T11:11:50.733Z,1.10
2022-11-22T11:14:28.990Z,0.90
2022-11-22T11:16:57.623Z,1.10
2022-11-22T11:19:29.469Z,1.10
2022-11-22T11:22:03.541Z,1.45
2022-11-22T11:24:33.372Z,1.50
2022-11-22T11:27:01.955Z,1.25
2022-11-22T11:29:43.523Z,0.90
2022-11-22T11:32:16.556Z,0.90
2022-11-22T11:34:53.737Z,0.80
2022-11-22T11:37:27.946Z,0.60
2022-11-22T11:39:57.555Z,0.93
2022-11-22T11:42:28.963Z,1.00
2022-11-22T11:45:22.374Z,0.80
2022-11-22T11:47:50.791Z,0.63
2022-11-22T11:50:24.378Z,1.00
2022-11-22T11:52:56.619Z,0.90
2022-11-22T11:55:31.438Z,0.70
2022-11-22T11:57:59.974Z,0.80
2022-11-22T12:00:36.264Z,0.60
2022-11-22T12:03:09.696Z,0.90
2022-11-22T12:05:38.201Z,0.70
2022-11-22T12:08:29.319Z,0.40
2022-11-22T12:11:04.005Z,0.63
2022-11-22T12:13:57.866Z,0.60
2022-11-22T12:16:30.951Z,0.88
2022-11-22T12:19:07.766Z,0.85
2022-11-22T12:21:43.174Z,0.57
2022-11-22T12:27:05.236Z,0.93
2022-11-22T12:29:36.343Z,0.60
2022-11-22T12:32:12.836Z,0.60
2022-11-22T12:34:52.214Z,0.98
2022-11-22T12:37:25.100Z,0.80
2022-11-22T12:39:55.772Z,0.70
2022-11-22T12:42:30.633Z,0.90
2022-11-22T12:45:04.324Z,0.80
2022-11-22T12:47:37.989Z,0.90
2022-11-22T12:50:16.795Z,1.05
2022-11-22T12:52:50.451Z,0.55
2022-11-22T12:55:22.382Z,0.73
2022-11-22T12:58:04.704Z,0.60
2022-11-22T13:00:40.255Z,0.63
2022-11-22T13:03:14.041Z,0.90
2022-11-22T13:05:47.136Z,0.93
2022-11-22T13:08:19.636Z,0.90
2022-11-22T13:10:54.306Z,1.08
2022-11-22T13:13:26.925Z,0.40
2022-11-22T13:15:57.441Z,0.60
2022-11-22T13:18:32.510Z,0.73
2022-11-22T13:21:09.449Z,0.63
2022-11-22T13:24:02.733Z,0.82
2022-11-22T13:26:37.815Z,0.73
2022-11-22T13:29:15.917Z,0.70
2022-11-22T13:32:06.517Z,0.73
2022-11-22T13:34:36.292Z,0.60
2022-11-22T13:37:09.351Z,0.63
2022-11-22T13:39:42.642Z,0.80
2022-11-22T13:42:15.118Z,0.88
2022-11-22T13:45:20.281Z,0.70
2022-11-22T13:47:48.838Z,0.75
2022-11-22T13:50:58.880Z,1.10
2022-11-22T13:53:30.469Z,0.90
2022-11-22T13:56:09.901Z,0.70
2022-11-22T13:58:55.696Z,0.80
2022-11-22T14:02:02.872Z,1.17
2022-11-22T14:04:43.149Z,0.88
2022-11-22T14:07:39.457Z,0.80
2022-11-22T14:10:28.214Z,0.70
2022-11-22T14:13:32.281Z,1.02
2022-11-22T14:16:40.032Z,1.05
2022-11-22T14:19:21.290Z,0.93
2022-11-22T14:22:06.067Z,0.75
2022-11-22T14:24:47.686Z,0.77
2022-11-22T14:27:28.076Z,1.00
2022-11-22T14:30:08.602Z,0.60
2022-11-22T14:32:59.922Z,1.00
2022-11-22T14:35:32.298Z,0.98
2022-11-22T14:38:05.513Z,0.93
2022-11-22T14:40:38.564Z,1.08
2022-11-22T14:43:22.764Z,1.05
2022-11-22T14:45:53.428Z,0.88
2022-11-22T14:48:23.476Z,0.80
2022-11-22T14:51:06.087Z,0.60
2022-11-22T14:53:40.293Z,0.80
2022-11-22T14:56:15.581Z,0.80
2022-11-22T14:59:07.946Z,0.70
2022-11-22T15:01:56.699Z,0.80
2022-11-22T15:09:15.085Z,0.50
2022-11-22T15:09:17.866Z,0.70
2022-11-22T15:11:09.696Z,0.75
2022-11-22T15:13:59.849Z,1.23
2022-11-22T15:57:26.644Z,1.35
2022-11-22T15:59:55.839Z,1.73
2022-11-22T16:02:29.919Z,1.02
2022-11-22T16:06:07.592Z,2.03
2022-11-22T16:07:51.771Z,1.70
2022-11-22T16:10:22.374Z,1.50
2022-11-22T16:12:51.513Z,1.77
2022-11-22T16:15:36.200Z,1.52
2022-11-22T16:18:14.257Z,1.90
2022-11-22T16:20:42.861Z,1.55
2022-11-22T16:23:25.280Z,2.00
2022-11-22T16:26:00.090Z,1.85
2022-11-22T16:28:33.599Z,1.80
2022-11-22T16:31:04.997Z,2.60
2022-11-22T16:33:34.828Z,1.98
2022-11-22T16:36:05.831Z,2.53
2022-11-22T16:38:34.184Z,2.00
2022-11-22T16:41:02.958Z,1.80
2022-11-22T16:43:36.002Z,2.45
2022-11-22T16:46:04.682Z,1.75
2022-11-22T16:48:34.432Z,2.38
2022-11-22T16:51:05.841Z,2.45
2022-11-22T16:53:45.245Z,2.83
2022-11-22T16:56:20.310Z,2.67
2022-11-22T16:58:49.444Z,2.17
2022-11-22T17:01:20.432Z,2.58
2022-11-22T17:03:53.246Z,2.65
2022-11-22T17:06:22.972Z,2.20
2022-11-22T17:08:52.996Z,2.10
2022-11-22T17:11:23.844Z,1.77
2022-11-22T17:13:52.380Z,3.17
2022-11-22T17:16:20.806Z,2.30
2022-11-22T17:18:50.713Z,2.05
2022-11-22T17:21:25.891Z,1.77
2022-11-22T17:23:55.175Z,2.75
2022-11-22T17:26:23.703Z,2.10
2022-11-22T17:28:52.320Z,2.08
2022-11-22T17:31:22.130Z,2.00
2022-11-22T17:33:53.154Z,1.60
2022-11-22T17:36:26.528Z,1.67
2022-11-22T17:38:54.944Z,1.77
2022-11-22T17:41:23.503Z,1.77
2022-11-22T17:43:52.703Z,1.75
2022-11-22T17:46:21.147Z,1.67
2022-11-22T17:48:54.074Z,2.10
2022-11-22T17:51:23.169Z,2.00
2022-11-22T17:53:51.825Z,1.88
2022-11-22T17:56:20.236Z,1.40
2022-11-22T17:58:48.832Z,1.50
2022-11-22T18:01:18.966Z,1.73
2022-11-22T18:03:48.294Z,1.10
2022-11-22T18:06:19.088Z,1.33
2022-11-22T18:08:47.727Z,1.58
2022-11-22T18:11:16.471Z,1.80
2022-11-22T18:13:45.778Z,2.20
2022-11-22T18:16:15.733Z,1.52
2022-11-22T18:19:00.055Z,2.03
2022-11-22T18:21:31.937Z,1.52
2022-11-22T18:24:01.428Z,2.33
2022-11-22T18:26:45.384Z,1.73
2022-11-22T18:32:03.352Z,2.00
2022-11-22T18:34:32.145Z,1.92
2022-11-22T18:37:03.502Z,2.33
2022-11-22T18:39:34.736Z,2.08
2022-11-22T18:42:04.242Z,2.20
2022-11-22T18:44:32.721Z,2.88
2022-11-22T18:47:01.221Z,1.85
2022-11-22T18:49:30.130Z,1.83
2022-11-22T18:51:58.791Z,2.70
2022-11-22T18:54:28.737Z,2.22
2022-11-22T18:56:57.302Z,2.33
2022-11-22T18:59:25.819Z,1.92
2022-11-22T19:01:54.303Z,2.40
2022-11-22T19:04:22.900Z,1.98
2022-11-22T19:06:51.816Z,2.47
2022-11-22T19:09:20.419Z,2.17
2022-11-22T19:11:52.600Z,2.20
2022-11-22T19:14:23.896Z,2.10
2022-11-22T19:16:52.342Z,2.05
2022-11-22T19:19:20.752Z,2.22
2022-11-22T19:21:49.126Z,1.92
2022-11-22T19:24:17.685Z,2.13
2022-11-22T19:26:46.082Z,2.53
2022-11-22T19:29:16.061Z,1.75
2022-11-22T19:31:44.588Z,2.13
2022-11-22T19:34:12.964Z,2.17
2022-11-22T19:36:41.665Z,2.03
2022-11-22T19:39:13.360Z,2.35
2022-11-22T19:41:42.893Z,1.88
2022-11-22T19:44:12.206Z,2.15
2022-11-22T19:46:42.510Z,1.95
2022-11-22T19:49:11.588Z,2.08
2022-11-22T19:51:40.069Z,1.35
2022-11-22T19:54:08.863Z,1.60
2022-11-22T19:56:38.958Z,1.80
2022-11-22T19:59:10.431Z,1.90
2022-11-22T20:01:39.768Z,1.98
2022-11-22T20:04:10.238Z,1.42
2022-11-22T20:06:38.768Z,1.90
2022-11-22T20:09:09.315Z,2.35
2022-11-22T20:11:38.400Z,2.00
2022-11-22T20:14:07.088Z,1.70
2022-11-22T20:16:35.679Z,2.45
2022-11-22T20:19:06.841Z,1.77
2022-11-22T20:21:37.458Z,2.05
2022-11-22T20:24:06.675Z,1.63
2022-11-22T20:26:35.396Z,2.03
2022-11-22T20:29:06.044Z,1.58
2022-11-22T20:31:36.740Z,2.20
2022-11-22T20:34:05.638Z,2.17
2022-11-22T20:36:35.037Z,2.25
2022-11-22T20:39:10.459Z,2.58
2022-11-22T20:41:39.913Z,2.13
2022-11-22T20:44:12.108Z,1.52
2022-11-22T20:46:40.586Z,1.80
2022-11-22T20:49:08.984Z,2.03
2022-11-22T20:51:40.028Z,2.00
2022-11-22T20:54:10.975Z,2.15
2022-11-22T20:56:39.874Z,3.10
2022-11-22T20:59:08.538Z,2.13
2022-11-22T21:01:37.320Z,2.50
2022-11-22T21:04:06.278Z,2.33
2022-11-22T21:06:35.127Z,2.30
2022-11-22T21:09:03.806Z,2.22
2022-11-22T21:11:33.681Z,2.25
2022-11-22T21:14:02.220Z,2.10
2022-11-22T21:16:31.408Z,2.08
2022-11-22T21:19:01.718Z,1.77
2022-11-22T21:21:30.955Z,1.95
2022-11-22T21:24:00.847Z,1.90
2022-11-22T21:26:29.684Z,1.50
2022-11-22T21:29:00.562Z,1.88
2022-11-22T21:31:29.250Z,2.17
2022-11-22T21:33:57.877Z,2.00
2022-11-22T21:36:26.448Z,2.20
2022-11-22T21:38:54.878Z,2.05
2022-11-22T21:41:39.237Z,2.33
2022-11-22T21:44:10.644Z,1.88
2022-11-22T21:46:39.267Z,2.22
2022-11-22T21:49:07.916Z,2.03
2022-11-22T21:51:36.157Z,1.92
2022-11-22T21:54:05.254Z,2.38
2022-11-22T21:56:33.761Z,2.38
2022-11-22T21:59:02.355Z,2.38
2022-11-22T22:01:33.931Z,1.60
2022-11-22T22:04:02.429Z,2.17
2022-11-22T22:06:30.737Z,1.67
2022-11-22T22:08:59.082Z,1.90
2022-11-22T22:11:27.473Z,1.83
2022-11-22T22:13:58.211Z,1.65
2022-11-22T22:16:26.716Z,1.75
2022-11-22T22:18:56.433Z,2.30
2022-11-22T22:21:25.117Z,2.05
2022-11-22T22:23:53.927Z,2.13
2022-11-22T22:26:22.394Z,1.58
2022-11-22T22:28:50.922Z,1.42
2022-11-22T22:31:22.732Z,1.75
2022-11-22T22:33:52.503Z,2.20
2022-11-22T22:36:23.329Z,2.00
2022-11-22T22:38:51.679Z,2.28
2022-11-22T22:41:20.004Z,1.98
2022-11-22T22:43:49.983Z,1.88
2022-11-22T22:46:20.270Z,1.60
2022-11-22T22:48:49.634Z,1.75
2022-11-22T22:51:19.372Z,1.88
2022-11-22T22:53:49.585Z,2.03
2022-11-22T22:56:20.448Z,1.65
2022-11-22T22:58:49.096Z,1.73
2022-11-22T23:01:19.205Z,1.83
2022-11-22T23:03:49.595Z,1.80
2022-11-22T23:06:18.988Z,1.60
2022-11-22T23:08:50.647Z,1.83
2022-11-22T23:11:22.889Z,1.65
2022-11-22T23:13:51.332Z,2.63
2022-11-22T23:16:19.689Z,1.98
2022-11-22T23:18:48.173Z,1.60
2022-11-22T23:21:16.800Z,2.30
2022-11-22T23:23:45.228Z,1.40
2022-11-22T23:26:14.927Z,1.85
2022-11-22T23:28:43.334Z,1.48
2022-11-22T23:31:13.621Z,1.70
2022-11-22T23:33:42.539Z,1.58
2022-11-22T23:36:12.889Z,1.73
2022-11-22T23:38:42.029Z,1.70
2022-11-22T23:41:12.706Z,2.08
2022-11-22T23:43:42.802Z,1.70
2022-11-22T23:46:16.101Z,1.80
2022-11-22T23:48:45.290Z,1.52
2022-11-22T23:51:13.978Z,1.88
2022-11-22T23:53:42.610Z,1.85
2022-11-22T23:56:12.579Z,2.45
2022-11-22T23:58:42.602Z,1.80
